createdAt,value
2019-03-19T00:01:31.040Z,82.60
2019-03-19T00:03:59.697Z,83.20
2019-03-19T00:06:28.656Z,83.30
2019-03-19T00:08:57.336Z,83.50
2019-03-19T00:11:25.964Z,83.50
2019-03-19T00:13:55.042Z,83.20
2019-03-19T00:16:27.967Z,83.30
2019-03-19T00:18:57.063Z,83.70
2019-03-19T00:21:25.803Z,84.30
2019-03-19T00:23:54.608Z,84.00
2019-03-19T00:26:23.336Z,84.20
2019-03-19T00:28:51.915Z,84.70
2019-03-19T00:31:20.577Z,84.80
2019-03-19T00:33:49.143Z,84.90
2019-03-19T00:36:17.752Z,85.00
2019-03-19T00:38:46.409Z,85.20
2019-03-19T00:41:15.127Z,85.40
2019-03-19T00:43:43.763Z,86.10
2019-03-19T00:46:12.441Z,86.10
2019-03-19T00:48:41.049Z,86.00
2019-03-19T00:51:09.689Z,85.90
2019-03-19T00:53:38.489Z,86.20
2019-03-19T00:56:07.079Z,85.90
2019-03-19T00:58:35.742Z,85.80
2019-03-19T01:01:07.311Z,85.80
2019-03-19T01:03:35.996Z,86.60
2019-03-19T01:06:04.979Z,86.30
2019-03-19T01:08:33.586Z,86.20
2019-03-19T01:11:02.267Z,86.80
2019-03-19T01:13:30.851Z,87.20
2019-03-19T01:15:59.641Z,86.60
2019-03-19T01:18:28.313Z,86.00
2019-03-19T01:20:56.909Z,86.30
2019-03-19T01:23:25.496Z,86.20
2019-03-19T01:25:55.634Z,86.40
2019-03-19T01:28:24.553Z,86.40
2019-03-19T01:30:53.398Z,86.20
2019-03-19T01:33:22.029Z,86.10
2019-03-19T01:35:50.637Z,86.20
2019-03-19T01:38:19.221Z,86.40
2019-03-19T01:40:47.930Z,86.80
2019-03-19T01:43:19.552Z,87.00
2019-03-19T01:45:48.146Z,86.80
2019-03-19T01:48:17.936Z,87.30
2019-03-19T01:50:46.557Z,87.20
2019-03-19T01:53:15.343Z,87.20
2019-03-19T01:55:43.933Z,87.10
2019-03-19T01:58:12.515Z,87.00
2019-03-19T02:00:41.193Z,86.90
2019-03-19T02:03:10.029Z,87.10
2019-03-19T02:05:38.722Z,86.80
2019-03-19T02:08:07.307Z,87.20
2019-03-19T02:10:35.899Z,87.20
2019-03-19T02:13:04.605Z,87.60
2019-03-19T02:15:33.396Z,88.10
2019-03-19T02:18:04.490Z,88.00
2019-03-19T02:20:33.204Z,88.10
2019-03-19T02:23:04.490Z,88.70
2019-03-19T02:25:32.417Z,88.80
2019-03-19T02:28:01.014Z,89.00
2019-03-19T02:30:29.697Z,89.00
2019-03-19T02:32:58.816Z,88.90
2019-03-19T02:35:27.390Z,88.80
2019-03-19T02:37:56.054Z,88.80
2019-03-19T02:40:24.920Z,88.60
2019-03-19T02:42:53.529Z,89.40
2019-03-19T02:45:22.184Z,88.90
2019-03-19T02:47:50.775Z,89.10
2019-03-19T02:50:19.433Z,89.20
2019-03-19T02:52:48.012Z,89.30
2019-03-19T02:55:16.907Z,89.60
2019-03-19T02:57:45.646Z,89.90
2019-03-19T03:00:15.647Z,90.00
2019-03-19T03:02:44.253Z,90.10
2019-03-19T03:05:13.058Z,90.00
2019-03-19T03:07:41.625Z,90.20
2019-03-19T03:10:13.000Z,90.20
2019-03-19T03:12:41.603Z,90.00
2019-03-19T03:15:10.368Z,90.10
2019-03-19T03:17:39.015Z,90.20
2019-03-19T03:20:07.623Z,90.30
2019-03-19T03:22:36.315Z,90.20
2019-03-19T03:25:05.432Z,90.20
2019-03-19T03:27:34.035Z,90.20
2019-03-19T03:30:04.029Z,90.20
2019-03-19T03:32:32.682Z,90.10
2019-03-19T03:35:01.295Z,90.20
2019-03-19T03:37:29.922Z,90.20
2019-03-19T03:39:58.515Z,90.10
2019-03-19T03:42:27.120Z,90.10
2019-03-19T03:44:55.721Z,90.20
2019-03-19T03:47:24.386Z,90.30
2019-03-19T03:49:52.990Z,90.30
2019-03-19T03:52:21.597Z,90.30
2019-03-19T03:54:50.201Z,90.50
2019-03-19T03:57:18.795Z,90.50
2019-03-19T03:59:47.375Z,90.50
2019-03-19T04:02:17.609Z,90.50
2019-03-19T04:04:46.198Z,90.50
2019-03-19T04:07:14.905Z,90.30
2019-03-19T04:09:43.518Z,90.30
2019-03-19T04:12:18.601Z,90.20
2019-03-19T04:14:47.201Z,90.30
2019-03-19T04:17:18.606Z,90.30
2019-03-19T04:19:47.187Z,90.50
2019-03-19T04:22:17.936Z,91.00
2019-03-19T04:24:46.520Z,91.50
2019-03-19T04:27:16.785Z,91.60
2019-03-19T04:29:45.498Z,91.70
2019-03-19T04:32:26.781Z,91.70
2019-03-19T04:34:44.437Z,91.60
2019-03-19T04:37:13.091Z,91.60
2019-03-19T04:39:41.691Z,91.50
2019-03-19T04:42:10.374Z,91.60
2019-03-19T04:44:38.971Z,91.50
2019-03-19T04:47:07.578Z,91.50
2019-03-19T04:49:36.279Z,91.50
2019-03-19T04:52:05.008Z,91.30
2019-03-19T04:54:33.756Z,91.30
2019-03-19T04:57:02.436Z,91.40
2019-03-19T04:59:31.061Z,91.40
2019-03-19T05:01:59.652Z,91.30
2019-03-19T05:04:28.300Z,91.50
2019-03-19T05:06:56.892Z,91.80
2019-03-19T05:09:25.482Z,91.80
2019-03-19T05:11:54.269Z,91.90
2019-03-19T05:14:22.861Z,91.90
2019-03-19T05:16:51.457Z,91.80
2019-03-19T05:19:20.036Z,91.90
2019-03-19T05:21:48.618Z,91.80
2019-03-19T05:24:19.935Z,91.70
2019-03-19T05:26:48.542Z,91.70
2019-03-19T05:29:20.477Z,91.80
2019-03-19T05:31:49.055Z,91.90
2019-03-19T05:34:17.637Z,92.00
2019-03-19T05:36:46.216Z,92.30
2019-03-19T05:39:14.990Z,92.50
2019-03-19T05:41:43.633Z,92.50
2019-03-19T05:44:12.276Z,92.60
2019-03-19T05:46:40.891Z,93.00
2019-03-19T05:49:09.482Z,92.80
2019-03-19T05:51:38.169Z,92.70
2019-03-19T05:54:07.012Z,92.70
2019-03-19T05:56:35.624Z,92.90
2019-03-19T05:59:05.632Z,93.00
2019-03-19T06:01:34.342Z,93.10
2019-03-19T06:04:03.107Z,93.30
2019-03-19T06:06:31.744Z,93.20
2019-03-19T06:09:00.373Z,93.20
2019-03-19T06:11:29.009Z,93.50
2019-03-19T06:13:57.890Z,93.90
2019-03-19T06:16:26.500Z,94.00
2019-03-19T06:18:55.106Z,94.00
2019-03-19T06:21:23.801Z,94.00
2019-03-19T06:23:52.437Z,94.20
2019-03-19T06:26:21.166Z,93.90
2019-03-19T06:28:49.934Z,94.10
2019-03-19T06:31:18.588Z,93.60
2019-03-19T06:33:48.242Z,93.70
2019-03-19T06:36:20.079Z,93.50
2019-03-19T06:38:48.961Z,93.70
2019-03-19T06:41:17.562Z,93.50
2019-03-19T06:43:46.247Z,93.40
2019-03-19T06:46:17.933Z,93.40
2019-03-19T06:48:46.689Z,93.40
2019-03-19T06:51:16.368Z,93.30
2019-03-19T06:53:45.315Z,93.30
2019-03-19T06:59:19.540Z,93.30
2019-03-19T07:01:48.146Z,93.30
2019-03-19T07:04:18.717Z,93.30
2019-03-19T07:07:01.686Z,93.30
2019-03-19T07:09:17.988Z,93.30
2019-03-19T07:11:46.627Z,93.30
2019-03-19T07:14:16.369Z,93.10
2019-03-19T07:16:44.981Z,93.20
2019-03-19T07:19:17.834Z,93.00
2019-03-19T07:21:46.768Z,93.00
2019-03-19T07:24:15.567Z,92.90
2019-03-19T07:26:44.327Z,93.00
2019-03-19T07:29:13.032Z,93.00
2019-03-19T07:31:41.724Z,93.00
2019-03-19T07:34:10.396Z,93.00
2019-03-19T07:36:38.994Z,92.80
2019-03-19T07:39:08.520Z,93.00
2019-03-19T07:41:37.084Z,92.90
2019-03-19T07:44:05.660Z,92.80
2019-03-19T07:46:34.267Z,92.90
2019-03-19T07:49:02.851Z,92.80
2019-03-19T07:51:31.477Z,92.90
2019-03-19T07:54:00.398Z,92.90
2019-03-19T07:56:29.395Z,92.80
2019-03-19T07:58:58.011Z,92.50
2019-03-19T08:01:26.601Z,92.60
2019-03-19T08:03:55.206Z,92.30
2019-03-19T08:06:23.926Z,92.40
2019-03-19T08:08:52.565Z,92.20
2019-03-19T08:11:21.201Z,92.10
2019-03-19T08:13:51.952Z,92.10
2019-03-19T08:16:27.398Z,91.70
2019-03-19T08:18:50.627Z,91.80
2019-03-19T08:21:19.233Z,91.80
2019-03-19T08:23:47.841Z,91.90
2019-03-19T08:26:16.476Z,91.70
2019-03-19T08:28:54.917Z,91.80
2019-03-19T08:31:15.556Z,92.00
2019-03-19T08:33:46.870Z,91.90
2019-03-19T08:36:17.994Z,91.90
2019-03-19T08:38:46.590Z,91.90
2019-03-19T08:41:15.171Z,91.80
2019-03-19T08:43:43.853Z,91.70
2019-03-19T08:46:12.488Z,91.80
2019-03-19T08:48:41.099Z,91.40
2019-03-19T08:51:09.659Z,91.30
2019-03-19T08:53:38.285Z,91.40
2019-03-19T08:56:06.933Z,91.20
2019-03-19T08:58:35.660Z,91.10
2019-03-19T09:01:05.381Z,91.10
2019-03-19T09:03:34.188Z,90.80
2019-03-19T09:06:02.904Z,90.70
2019-03-19T09:08:31.606Z,90.90
2019-03-19T09:11:00.210Z,90.90
2019-03-19T09:13:28.849Z,90.80
2019-03-19T09:15:57.540Z,90.90
2019-03-19T09:18:26.154Z,90.60
2019-03-19T09:20:54.743Z,90.70
2019-03-19T09:23:23.376Z,90.40
2019-03-19T09:25:51.977Z,89.70
2019-03-19T09:28:20.650Z,89.30
2019-03-19T09:30:49.245Z,89.50
2019-03-19T09:33:20.080Z,89.00
2019-03-19T09:35:48.741Z,88.50
2019-03-19T09:38:17.621Z,88.70
2019-03-19T09:40:47.990Z,88.20
2019-03-19T09:43:17.713Z,87.70
2019-03-19T09:45:46.528Z,88.10
2019-03-19T09:48:16.772Z,88.00
2019-03-19T09:50:45.353Z,87.90
2019-03-19T09:53:13.969Z,87.70
2019-03-19T09:55:42.604Z,87.60
2019-03-19T09:58:11.693Z,87.20
2019-03-19T10:00:40.435Z,86.40
2019-03-19T10:03:09.104Z,86.20
2019-03-19T10:05:37.755Z,86.20
2019-03-19T10:08:06.389Z,85.30
2019-03-19T10:10:35.208Z,84.80
2019-03-19T10:13:03.967Z,85.00
2019-03-19T10:15:35.466Z,84.60
2019-03-19T10:18:04.187Z,84.40
2019-03-19T10:20:32.861Z,83.70
2019-03-19T10:23:01.471Z,82.50
2019-03-19T10:25:30.054Z,81.40
2019-03-19T10:27:58.673Z,80.70
2019-03-19T10:30:27.315Z,80.80
2019-03-19T10:32:55.956Z,80.30
2019-03-19T10:35:24.685Z,80.60
2019-03-19T10:37:53.517Z,80.50
2019-03-19T10:40:22.237Z,80.30
2019-03-19T10:42:50.856Z,80.70
2019-03-19T10:45:19.524Z,79.30
2019-03-19T10:47:48.191Z,79.10
2019-03-19T10:50:19.770Z,79.50
2019-03-19T10:52:48.401Z,78.90
2019-03-19T10:55:17.125Z,78.50
2019-03-19T10:57:45.834Z,79.60
2019-03-19T11:00:19.790Z,80.90
2019-03-19T11:02:48.423Z,78.50
2019-03-19T11:05:18.156Z,77.70
2019-03-19T11:07:46.854Z,76.30
2019-03-19T11:10:17.859Z,77.40
2019-03-19T11:12:46.463Z,77.80
2019-03-19T11:15:17.750Z,77.50
2019-03-19T11:17:46.441Z,76.70
2019-03-19T11:20:17.281Z,76.90
2019-03-19T11:22:45.924Z,77.60
2019-03-19T11:25:16.748Z,75.50
2019-03-19T11:27:45.472Z,75.30
2019-03-19T11:30:16.845Z,74.80
2019-03-19T11:32:45.524Z,75.90
2019-03-19T11:35:16.464Z,75.00
2019-03-19T11:37:44.520Z,75.00
2019-03-19T11:40:13.770Z,74.20
2019-03-19T11:42:42.411Z,74.00
2019-03-19T11:45:12.221Z,75.00
2019-03-19T11:47:41.075Z,74.80
2019-03-19T11:50:28.112Z,75.30
2019-03-19T11:52:57.059Z,72.20
2019-03-19T11:55:25.713Z,73.10
2019-03-19T11:57:54.325Z,73.00
2019-03-19T12:00:49.817Z,73.10
2019-03-19T12:03:18.467Z,74.60
2019-03-19T12:05:47.218Z,74.70
2019-03-19T12:08:18.964Z,75.30
2019-03-19T12:10:47.601Z,76.20
2019-03-19T12:13:17.204Z,75.90
2019-03-19T12:15:45.944Z,74.20
2019-03-19T12:18:14.613Z,73.70
2019-03-19T12:20:43.517Z,71.70
2019-03-19T12:23:12.394Z,69.80
2019-03-19T12:25:41.291Z,68.30
2019-03-19T12:28:09.926Z,68.70
2019-03-19T12:30:38.799Z,67.30
2019-03-19T12:33:07.493Z,66.70
2019-03-19T12:35:36.273Z,66.10
2019-03-19T12:38:05.023Z,64.80
2019-03-19T12:40:37.305Z,65.60
2019-03-19T12:43:04.261Z,65.80
2019-03-19T12:45:32.910Z,62.90
2019-03-19T12:48:01.630Z,62.50
2019-03-19T12:50:30.320Z,64.20
2019-03-19T12:52:58.995Z,64.50
2019-03-19T12:55:46.977Z,64.60
2019-03-19T12:58:18.255Z,61.90
2019-03-19T13:00:46.884Z,62.70
2019-03-19T13:03:19.119Z,61.30
2019-03-19T13:05:48.013Z,61.90
2019-03-19T13:08:17.199Z,60.80
2019-03-19T13:10:49.653Z,61.80
2019-03-19T13:13:18.293Z,60.80
2019-03-19T13:15:47.074Z,59.90
2019-03-19T13:18:15.921Z,62.50
2019-03-19T13:20:44.660Z,59.80
2019-03-19T13:23:13.334Z,61.50
2019-03-19T13:25:42.152Z,62.40
2019-03-19T13:28:10.766Z,62.30
2019-03-19T13:30:44.881Z,60.90
2019-03-19T13:33:11.379Z,60.90
2019-03-19T13:35:40.035Z,60.60
2019-03-19T13:38:08.722Z,59.10
2019-03-19T13:40:37.409Z,60.30
2019-03-19T13:43:06.048Z,62.50
2019-03-19T13:45:34.747Z,60.50
2019-03-19T13:48:03.692Z,60.70
2019-03-19T13:50:32.353Z,60.90
2019-03-19T13:53:00.956Z,61.30
2019-03-19T13:55:29.648Z,61.10
2019-03-19T13:57:58.374Z,61.00
2019-03-19T14:00:27.049Z,60.20
2019-03-19T14:02:55.697Z,59.40
2019-03-19T14:05:24.303Z,59.30
2019-03-19T14:07:52.913Z,59.90
2019-03-19T14:10:21.774Z,58.60
2019-03-19T14:12:50.426Z,60.30
2019-03-19T14:15:19.087Z,60.00
2019-03-19T14:17:47.725Z,59.50
2019-03-19T14:20:16.679Z,60.80
2019-03-19T14:22:45.734Z,62.00
2019-03-19T14:25:14.594Z,60.70
2019-03-19T14:27:43.235Z,60.10
2019-03-19T14:30:16.808Z,62.20
2019-03-19T14:32:45.428Z,62.20
2019-03-19T14:35:19.129Z,62.30
2019-03-19T14:37:47.803Z,61.00
2019-03-19T14:40:19.099Z,61.40
2019-03-19T14:42:47.712Z,62.20
2019-03-19T14:45:21.602Z,61.40
2019-03-19T14:47:50.220Z,60.50
2019-03-19T14:50:18.812Z,61.00
2019-03-19T14:52:47.481Z,60.60
2019-03-19T14:55:16.269Z,61.90
2019-03-19T14:57:44.902Z,59.90
2019-03-19T15:00:15.969Z,61.70
2019-03-19T15:02:44.728Z,61.90
2019-03-19T15:05:13.546Z,61.00
2019-03-19T15:07:42.241Z,60.80
2019-03-19T15:10:14.427Z,61.80
2019-03-19T15:12:43.122Z,62.00
2019-03-19T15:15:12.671Z,63.30
2019-03-19T15:17:41.316Z,61.40
2019-03-19T15:20:15.277Z,62.40
2019-03-19T15:22:43.887Z,61.20
2019-03-19T15:25:12.746Z,61.60
2019-03-19T15:27:41.355Z,63.20
2019-03-19T15:30:10.348Z,61.90
2019-03-19T15:32:39.007Z,62.80
2019-03-19T15:35:09.441Z,62.50
2019-03-19T15:37:38.145Z,63.10
2019-03-19T15:40:10.221Z,63.70
2019-03-19T15:42:38.984Z,62.90
2019-03-19T15:45:11.057Z,61.90
2019-03-19T15:47:41.638Z,61.90
2019-03-19T15:50:15.716Z,61.50
2019-03-19T15:52:44.306Z,61.80
2019-03-19T15:55:12.928Z,62.10
2019-03-19T15:57:41.567Z,62.30
2019-03-19T16:00:12.490Z,62.80
2019-03-19T16:02:41.103Z,63.00
2019-03-19T16:05:12.334Z,63.10
2019-03-19T16:07:40.956Z,63.80
2019-03-19T16:10:09.926Z,62.90
2019-03-19T16:12:38.546Z,60.90
2019-03-19T16:15:08.530Z,62.20
2019-03-19T16:17:37.156Z,63.10
2019-03-19T16:20:06.902Z,63.40
2019-03-19T16:22:35.500Z,62.10
2019-03-19T16:25:04.234Z,62.50
2019-03-19T16:27:32.862Z,62.10
2019-03-19T16:30:04.334Z,62.20
2019-03-19T16:32:33.026Z,62.20
2019-03-19T16:35:01.668Z,63.70
2019-03-19T16:37:30.328Z,64.90
2019-03-19T16:39:58.951Z,66.20
2019-03-19T16:42:27.580Z,66.50
2019-03-19T16:44:56.186Z,67.40
2019-03-19T16:47:24.820Z,68.00
2019-03-19T16:49:53.526Z,68.60
2019-03-19T16:52:22.130Z,68.50
2019-03-19T16:54:50.807Z,68.40
2019-03-19T16:57:19.404Z,68.40
2019-03-19T16:59:48.117Z,68.50
2019-03-19T17:02:37.664Z,68.50
2019-03-19T17:05:06.609Z,68.70
2019-03-19T17:07:35.424Z,67.90
2019-03-19T17:10:23.362Z,68.20
2019-03-19T17:12:52.047Z,68.30
2019-03-19T17:15:20.646Z,68.50
2019-03-19T17:17:49.458Z,68.80
2019-03-19T17:20:18.082Z,68.80
2019-03-19T17:22:46.669Z,68.80
2019-03-19T17:25:16.088Z,69.90
2019-03-19T17:27:44.764Z,70.10
2019-03-19T17:30:18.876Z,70.10
2019-03-19T17:32:47.541Z,69.90
2019-03-19T17:35:18.505Z,70.60
2019-03-19T17:37:47.136Z,71.00
2019-03-19T17:40:17.181Z,71.40
2019-03-19T17:42:45.847Z,71.80
2019-03-19T17:45:14.543Z,72.30
2019-03-19T17:47:43.231Z,72.60
2019-03-19T17:50:14.163Z,73.20
2019-03-19T17:52:42.822Z,73.30
2019-03-19T17:55:11.669Z,73.60
2019-03-19T17:57:40.294Z,74.00
2019-03-19T18:00:10.470Z,74.00
2019-03-19T18:02:41.064Z,74.20
2019-03-19T18:05:09.845Z,74.00
2019-03-19T18:07:38.576Z,74.20
2019-03-19T18:10:07.609Z,74.30
2019-03-19T18:12:36.397Z,74.70
2019-03-19T18:15:05.717Z,75.20
2019-03-19T18:17:34.349Z,75.40
2019-03-19T18:20:03.456Z,75.50
2019-03-19T18:22:32.278Z,76.00
2019-03-19T18:25:00.944Z,76.20
2019-03-19T18:27:29.664Z,76.60
2019-03-19T18:29:58.266Z,76.70
2019-03-19T18:32:34.719Z,77.00
2019-03-19T18:34:57.213Z,77.30
2019-03-19T18:37:25.836Z,77.30
2019-03-19T18:39:54.435Z,77.70
2019-03-19T18:42:23.092Z,78.40
2019-03-19T18:44:54.870Z,78.60
2019-03-19T18:47:23.728Z,79.10
2019-03-19T18:49:52.332Z,79.40
2019-03-19T18:52:20.952Z,79.50
2019-03-19T18:54:49.599Z,79.90
2019-03-19T18:57:18.255Z,79.70
2019-03-19T18:59:46.902Z,80.10
2019-03-19T19:02:15.560Z,80.20
2019-03-19T19:04:44.144Z,80.50
2019-03-19T19:07:33.154Z,80.40
2019-03-19T19:10:01.751Z,81.00
2019-03-19T19:12:30.367Z,80.80
2019-03-19T19:14:59.245Z,81.30
2019-03-19T19:17:28.151Z,81.20
2019-03-19T19:19:56.801Z,81.10
2019-03-19T19:22:25.433Z,81.40
2019-03-19T19:24:54.077Z,81.50
2019-03-19T19:27:22.751Z,81.70
2019-03-19T19:29:51.421Z,81.80
2019-03-19T19:32:20.066Z,82.20
2019-03-19T19:34:48.735Z,82.70
2019-03-19T19:37:17.388Z,82.60
2019-03-19T19:39:46.009Z,82.70
2019-03-19T19:42:18.010Z,83.20
2019-03-19T19:44:46.766Z,83.30
2019-03-19T19:47:15.460Z,83.50
2019-03-19T19:49:44.126Z,83.50
2019-03-19T19:52:12.723Z,83.20
2019-03-19T19:54:41.324Z,83.20
2019-03-19T19:57:12.066Z,83.50
2019-03-19T20:00:01.942Z,83.60
2019-03-19T20:02:30.363Z,83.70
2019-03-19T20:05:03.433Z,83.80
2019-03-19T20:07:29.335Z,84.00
2019-03-19T20:09:57.983Z,83.90
2019-03-19T20:12:26.650Z,83.30
2019-03-19T20:14:55.480Z,83.00
2019-03-19T20:17:24.091Z,83.20
2019-03-19T20:19:52.686Z,83.40
2019-03-19T20:22:21.286Z,83.40
2019-03-19T20:24:50.163Z,83.60
2019-03-19T20:27:18.773Z,83.60
2019-03-19T20:29:47.637Z,83.90
2019-03-19T20:32:17.560Z,84.00
2019-03-19T20:34:46.156Z,84.30
2019-03-19T20:37:14.847Z,84.20
2019-03-19T20:39:43.425Z,84.20
2019-03-19T20:42:31.749Z,84.30
2019-03-19T20:45:00.384Z,84.40
2019-03-19T20:47:28.979Z,84.70
2019-03-19T20:49:57.617Z,84.70
2019-03-19T20:52:26.217Z,84.90
2019-03-19T20:54:54.829Z,85.10
2019-03-19T20:57:23.513Z,85.30
2019-03-19T20:59:52.153Z,85.80
2019-03-19T21:02:40.088Z,86.00
2019-03-19T21:05:08.810Z,86.20
2019-03-19T21:07:37.435Z,86.90
2019-03-19T21:10:06.418Z,86.40
2019-03-19T21:12:54.350Z,86.60
2019-03-19T21:15:23.876Z,86.60
2019-03-19T21:17:52.493Z,86.60
2019-03-19T21:20:21.291Z,86.90
2019-03-19T21:22:49.949Z,86.90
2019-03-19T21:25:18.642Z,87.20
2019-03-19T21:27:47.289Z,87.40
2019-03-19T21:30:18.934Z,87.10
2019-03-19T21:32:47.537Z,87.90
2019-03-19T21:35:19.001Z,87.50
2019-03-19T21:37:47.698Z,87.30
2019-03-19T21:40:18.993Z,87.40
2019-03-19T21:42:47.591Z,87.40
2019-03-19T21:45:17.555Z,87.90
2019-03-19T21:47:46.183Z,87.60
2019-03-19T21:50:15.438Z,87.60
2019-03-19T21:52:44.420Z,87.40
2019-03-19T21:55:14.198Z,87.60
2019-03-19T21:57:43.130Z,88.40
2019-03-19T22:00:13.772Z,88.50
2019-03-19T22:02:42.416Z,88.80
2019-03-19T22:05:11.121Z,89.10
2019-03-19T22:07:39.770Z,89.60
2019-03-19T22:10:10.847Z,89.80
2019-03-19T22:12:39.543Z,89.90
2019-03-19T22:15:12.968Z,90.10
2019-03-19T22:17:41.820Z,90.10
2019-03-19T22:20:10.477Z,90.00
2019-03-19T22:22:39.373Z,90.10
2019-03-19T22:25:10.925Z,90.00
2019-03-19T22:27:39.545Z,90.10
2019-03-19T22:30:10.332Z,90.00
2019-03-19T22:32:38.993Z,90.00
2019-03-19T22:35:07.958Z,89.80
2019-03-19T22:37:37.402Z,90.00
2019-03-19T22:40:07.548Z,90.20
2019-03-19T22:42:36.135Z,90.10
2019-03-19T22:45:05.797Z,90.00
2019-03-19T22:47:34.420Z,90.00
2019-03-19T22:50:03.119Z,90.00
2019-03-19T22:52:34.780Z,90.10
2019-03-19T22:55:04.656Z,90.20
2019-03-19T22:57:52.673Z,90.30
2019-03-19T23:00:36.755Z,90.60
2019-03-19T23:03:05.869Z,90.60
2019-03-19T23:05:34.507Z,90.50
2019-03-19T23:08:03.115Z,90.60
2019-03-19T23:10:31.787Z,90.60
2019-03-19T23:13:00.381Z,90.60
2019-03-19T23:15:29.024Z,90.60
2019-03-19T23:17:57.627Z,90.40
2019-03-19T23:20:26.566Z,90.40
2019-03-19T23:22:58.176Z,90.30
2019-03-19T23:25:26.805Z,90.30
2019-03-19T23:27:55.412Z,90.50
2019-03-19T23:30:24.067Z,90.20
2019-03-19T23:32:52.685Z,90.30
2019-03-19T23:35:21.345Z,90.20
2019-03-19T23:37:50.186Z,90.10
2019-03-19T23:40:18.797Z,90.00
2019-03-19T23:42:47.391Z,90.00
2019-03-19T23:45:16.059Z,89.80
2019-03-19T23:47:44.665Z,89.50
2019-03-19T23:50:13.348Z,89.40
2019-03-19T23:52:41.981Z,89.30
2019-03-19T23:55:10.607Z,89.20
2019-03-19T23:57:39.197Z,88.90
